Time;durP1;ratioP1;P1;durP2;ratioP2;P2;SDS_P1;SDS_P2;PMS_P1;PMS_P2;Temp;Humidity;BMP_temperature;BMP_pressure;BME280_temperature;BME280_humidity;BME280_pressure;Samples;Min_cycle;Max_cycle;Signal;HPM_P1;HPM_P2
2021/06/09 00:01:30;;;;;;;1.83;1.73;;;18.40;99.90;;;;;;5011996;28;20175;-79
2021/06/09 00:03:56;;;;;;;1.70;1.60;;;18.40;99.90;;;;;;5010131;28;20175;-79
2021/06/09 00:06:21;;;;;;;1.43;1.17;;;18.30;99.90;;;;;;5033312;28;20266;-81
2021/06/09 00:08:47;;;;;;;2.17;1.10;;;18.30;99.90;;;;;;5029901;28;20630;-81
2021/06/09 00:11:13;;;;;;;1.40;1.13;;;18.30;99.90;;;;;;5007280;28;20551;-81
2021/06/09 00:13:38;;;;;;;2.60;1.20;;;18.20;99.90;;;;;;5033699;28;20175;-80
2021/06/09 00:16:13;;;;;;;1.20;1.10;;;18.20;99.90;;;;;;4997692;28;20210;-81
2021/06/09 00:18:39;;;;;;;1.60;1.50;;;18.20;99.90;;;;;;4997663;28;20265;-81
2021/06/09 00:21:05;;;;;;;2.40;1.30;;;18.20;99.90;;;;;;5012667;28;20466;-81
2021/06/09 00:23:31;;;;;;;1.73;1.40;;;18.10;99.90;;;;;;5009296;28;20772;-82
2021/06/09 00:26:02;;;;;;;1.10;0.93;;;18.10;99.90;;;;;;5014561;28;20437;-81
2021/06/09 00:28:29;;;;;;;0.80;0.60;;;18.10;99.90;;;;;;5029233;28;20233;-81
2021/06/09 00:30:55;;;;;;;1.63;1.53;;;18.00;99.90;;;;;;5002662;28;20449;-81
2021/06/09 00:33:20;;;;;;;2.17;1.70;;;18.10;99.90;;;;;;5014134;28;20930;-82
2021/06/09 00:35:47;;;;;;;2.17;1.97;;;18.10;99.90;;;;;;5029587;28;20200;-83
2021/06/09 00:38:13;;;;;;;1.00;0.90;;;18.00;99.90;;;;;;4997908;28;20176;-83
2021/06/09 00:40:38;;;;;;;2.93;1.40;;;18.00;99.90;;;;;;5015230;28;20465;-82
2021/06/09 00:43:05;;;;;;;2.00;1.90;;;18.00;99.90;;;;;;5016866;28;20202;-82
2021/06/09 00:45:32;;;;;;;1.53;1.10;;;18.00;99.90;;;;;;4999909;28;20187;-81
2021/06/09 00:47:58;;;;;;;0.80;0.60;;;18.00;99.90;;;;;;5030279;28;20533;-81
2021/06/09 00:50:23;;;;;;;1.57;1.20;;;18.00;99.90;;;;;;5022877;28;20478;-81
2021/06/09 00:52:49;;;;;;;1.97;1.57;;;17.90;99.90;;;;;;5006234;28;22020;-81
2021/06/09 00:55:15;;;;;;;1.20;1.10;;;17.90;99.90;;;;;;5028028;28;20184;-80
2021/06/09 00:57:41;;;;;;;2.37;2.00;;;17.90;99.90;;;;;;5004146;28;20875;-82
2021/06/09 01:00:10;;;;;;;2.20;1.20;;;17.90;99.90;;;;;;5015669;28;20446;-81
2021/06/09 01:02:36;;;;;;;1.10;1.03;;;17.90;99.90;;;;;;5015281;28;20441;-80
2021/06/09 01:05:03;;;;;;;3.47;1.80;;;17.90;99.90;;;;;;5016228;28;20430;-81
2021/06/09 01:07:29;;;;;;;2.23;1.40;;;17.90;99.90;;;;;;5033303;28;20183;-82
2021/06/09 01:09:55;;;;;;;1.67;0.87;;;17.90;99.90;;;;;;5032623;28;20446;-82
2021/06/09 01:12:22;;;;;;;1.10;1.00;;;17.90;99.90;;;;;;5029073;28;20210;-82
2021/06/09 01:14:47;;;;;;;2.20;1.63;;;17.90;99.90;;;;;;5001985;28;20175;-81
2021/06/09 01:17:13;;;;;;;1.87;1.67;;;17.80;99.90;;;;;;5042229;28;20537;-80
2021/06/09 01:19:38;;;;;;;2.60;2.30;;;17.80;99.90;;;;;;5034327;28;20222;-82
2021/06/09 01:22:04;;;;;;;2.57;1.73;;;17.90;99.90;;;;;;5026725;28;20251;-80
2021/06/09 01:24:30;;;;;;;1.87;1.17;;;17.80;99.90;;;;;;4997040;28;20179;-82
2021/06/09 01:26:56;;;;;;;1.37;1.00;;;17.80;99.90;;;;;;5004251;28;20184;-80
2021/06/09 01:29:22;;;;;;;2.03;1.57;;;17.80;99.90;;;;;;5006581;28;20207;-82
2021/06/09 01:31:48;;;;;;;2.53;1.23;;;17.70;99.90;;;;;;5003396;28;20435;-80
2021/06/09 01:34:13;;;;;;;1.80;1.70;;;17.70;99.90;;;;;;5007467;28;20552;-80
2021/06/09 01:36:41;;;;;;;2.20;1.20;;;17.70;99.90;;;;;;5015985;28;20550;-81
2021/06/09 01:39:11;;;;;;;2.00;1.20;;;17.70;99.90;;;;;;5034007;28;20219;-81
2021/06/09 01:41:47;;;;;;;1.57;1.47;;;17.60;99.90;;;;;;5004948;28;20420;-81
2021/06/09 01:44:13;;;;;;;1.60;1.10;;;17.60;99.90;;;;;;5012753;28;20429;-82
2021/06/09 01:46:40;;;;;;;1.43;1.23;;;17.60;99.90;;;;;;5030025;28;20438;-81
2021/06/09 01:49:07;;;;;;;1.20;0.93;;;17.50;99.90;;;;;;5015941;28;20457;-83
2021/06/09 01:51:33;;;;;;;1.60;1.10;;;17.50;99.90;;;;;;5030068;28;20524;-81
2021/06/09 01:54:00;;;;;;;2.03;1.87;;;17.50;99.90;;;;;;5013964;28;20839;-81
2021/06/09 01:56:25;;;;;;;2.10;1.40;;;17.50;99.90;;;;;;5013940;28;20458;-82
2021/06/09 01:58:51;;;;;;;1.30;1.07;;;17.50;99.90;;;;;;5006139;28;20424;-81
2021/06/09 02:01:19;;;;;;;4.10;1.93;;;17.40;99.90;;;;;;5030759;28;20195;-82
2021/06/09 02:03:44;;;;;;;2.07;1.57;;;17.40;99.90;;;;;;5015012;28;20172;-83
2021/06/09 02:06:10;;;;;;;1.13;1.03;;;17.30;99.90;;;;;;5007721;28;20811;-82
2021/06/09 02:08:36;;;;;;;1.60;1.40;;;17.30;99.90;;;;;;5017723;28;20175;-82
2021/06/09 02:11:01;;;;;;;1.60;1.50;;;17.30;99.90;;;;;;5030903;28;20179;-82
2021/06/09 02:13:30;;;;;;;4.03;2.97;;;17.20;99.90;;;;;;5019198;28;20203;-83
2021/06/09 02:15:56;;;;;;;1.73;1.63;;;17.20;99.90;;;;;;5016391;28;20215;-80
2021/06/09 02:18:24;;;;;;;1.37;1.27;;;17.20;99.90;;;;;;5039345;28;20864;-82
2021/06/09 02:20:59;;;;;;;0.90;0.80;;;17.20;99.90;;;;;;5012585;28;20515;-81
2021/06/09 02:23:27;;;;;;;1.17;0.93;;;17.10;99.90;;;;;;5035224;28;20429;-82
2021/06/09 02:25:57;;;;;;;1.50;1.40;;;17.10;99.90;;;;;;5011834;28;20442;-82
2021/06/09 02:28:24;;;;;;;2.07;1.80;;;17.10;99.90;;;;;;5003668;28;20780;-82
2021/06/09 02:30:50;;;;;;;2.60;1.67;;;17.10;99.90;;;;;;5025610;28;20557;-81
2021/06/09 02:33:19;;;;;;;5.23;2.33;;;17.00;99.90;;;;;;5008520;28;20479;-81
2021/06/09 02:35:46;;;;;;;1.97;1.87;;;16.90;99.90;;;;;;5035001;28;20541;-82
2021/06/09 02:38:13;;;;;;;1.57;1.10;;;16.80;99.90;;;;;;5022075;28;20415;-82
2021/06/09 02:40:40;;;;;;;1.50;1.37;;;16.80;99.90;;;;;;5029972;28;20463;-82
2021/06/09 02:43:07;;;;;;;1.23;1.13;;;16.80;99.90;;;;;;5037716;28;20902;-82
2021/06/09 02:45:33;;;;;;;1.60;1.50;;;16.70;99.90;;;;;;5017786;28;20430;-81
2021/06/09 02:48:02;;;;;;;1.77;1.67;;;16.70;99.90;;;;;;5033017;28;20443;-83
2021/06/09 02:50:29;;;;;;;2.80;1.40;;;16.60;99.90;;;;;;5018317;28;20453;-82
2021/06/09 02:53:14;;;;;;;2.30;1.90;;;16.60;99.90;;;;;;5035208;28;20432;-82
2021/06/09 02:56:04;;;;;;;4.70;1.90;;;16.60;99.90;;;;;;5039305;28;20549;-82
2021/06/09 02:58:56;;;;;;;3.13;2.53;;;16.60;99.90;;;;;;5015870;28;20431;-83
2021/06/09 03:01:44;;;;;;;2.13;1.63;;;16.50;99.90;;;;;;5015529;28;20422;-82
2021/06/09 03:04:27;;;;;;;1.57;1.47;;;16.60;99.90;;;;;;5013556;28;21298;-82
2021/06/09 03:07:06;;;;;;;1.40;1.30;;;16.50;99.90;;;;;;5035798;28;20529;-81
2021/06/09 03:09:53;;;;;;;1.83;1.73;;;16.40;99.90;;;;;;5038531;28;20446;-82
2021/06/09 03:12:41;;;;;;;3.23;1.67;;;16.50;99.90;;;;;;5032238;28;20434;-83
2021/06/09 03:15:13;;;;;;;2.80;2.60;;;16.40;99.90;;;;;;5010734;28;20442;-81
2021/06/09 03:18:05;;;;;;;3.13;1.83;;;16.40;99.90;;;;;;5038694;28;20426;-83
2021/06/09 03:20:37;;;;;;;1.67;1.50;;;16.50;99.90;;;;;;5020065;28;20464;-81
2021/06/09 03:23:13;;;;;;;2.20;1.80;;;16.50;99.90;;;;;;5009980;28;20426;-83
2021/06/09 03:26:18;;;;;;;4.63;2.50;;;16.50;99.90;;;;;;5039899;28;20497;-82
2021/06/09 03:29:06;;;;;;;3.70;1.60;;;16.50;99.90;;;;;;4963276;28;20424;-83
2021/06/09 03:31:37;;;;;;;5.57;2.10;;;16.60;99.90;;;;;;5024387;28;20963;-82
2021/06/09 03:34:06;;;;;;;4.07;2.00;;;16.60;99.90;;;;;;5012643;28;20449;-83
2021/06/09 03:36:39;;;;;;;4.57;1.37;;;16.60;99.90;;;;;;5008538;28;20489;-82
2021/06/09 03:39:07;;;;;;;4.03;2.20;;;16.50;99.90;;;;;;5036026;28;20470;-83
2021/06/09 03:41:46;;;;;;;2.97;2.77;;;16.50;99.90;;;;;;5019964;28;20430;-82
2021/06/09 03:44:12;;;;;;;4.73;2.40;;;16.40;99.90;;;;;;5021114;28;20434;-83
2021/06/09 03:46:40;;;;;;;2.50;2.30;;;16.40;99.90;;;;;;5039976;28;20438;-83
2021/06/09 03:49:14;;;;;;;3.27;2.03;;;16.40;99.90;;;;;;5039079;28;20457;-84
2021/06/09 03:51:41;;;;;;;2.33;2.07;;;16.40;99.90;;;;;;5041866;28;20818;-82
2021/06/09 03:54:09;;;;;;;3.90;3.53;;;16.40;99.90;;;;;;5040398;28;20440;-84
2021/06/09 03:56:39;;;;;;;7.43;2.13;;;16.40;99.90;;;;;;5039283;28;20488;-86
2021/06/09 03:59:05;;;;;;;1.60;1.50;;;16.40;99.90;;;;;;5006390;28;20435;-86
2021/06/09 04:01:35;;;;;;;3.13;2.70;;;16.40;99.90;;;;;;5023580;28;20968;-86
2021/06/09 04:04:03;;;;;;;3.43;1.80;;;16.40;99.90;;;;;;5008368;28;20423;-84
2021/06/09 04:06:30;;;;;;;2.33;2.10;;;16.50;99.90;;;;;;5031609;28;20496;-86
2021/06/09 04:08:59;;;;;;;6.23;2.70;;;16.50;99.90;;;;;;5019789;28;20446;-82
2021/06/09 04:11:26;;;;;;;1.53;1.43;;;16.50;99.90;;;;;;5005012;28;20419;-85
2021/06/09 04:13:54;;;;;;;2.57;1.87;;;16.60;99.90;;;;;;5004170;28;20435;-85
2021/06/09 04:16:23;;;;;;;7.70;2.60;;;16.60;99.90;;;;;;5036411;28;20461;-86
2021/06/09 04:18:50;;;;;;;7.63;4.10;;;16.70;99.90;;;;;;5028543;28;20422;-84
2021/06/09 04:21:16;;;;;;;4.43;2.90;;;16.70;99.90;;;;;;5018800;28;20427;-86
2021/06/09 04:23:42;;;;;;;3.83;2.87;;;16.70;99.90;;;;;;5018403;28;20779;-85
2021/06/09 04:26:15;;;;;;;1.90;1.77;;;16.70;99.90;;;;;;5032222;28;20430;-83
2021/06/09 04:28:42;;;;;;;2.07;1.97;;;16.80;99.90;;;;;;5028726;28;20465;-85
2021/06/09 04:31:08;;;;;;;2.17;1.97;;;16.70;99.90;;;;;;5036538;28;20522;-85
2021/06/09 04:33:34;;;;;;;3.43;1.73;;;16.70;99.90;;;;;;5020441;28;20454;-86
2021/06/09 04:36:00;;;;;;;3.37;1.87;;;16.70;99.90;;;;;;5005703;28;20988;-84
2021/06/09 04:38:26;;;;;;;2.30;2.20;;;16.80;99.90;;;;;;5013464;28;20271;-85
2021/06/09 04:40:53;;;;;;;4.10;2.93;;;16.90;99.90;;;;;;5022436;28;20470;-85
2021/06/09 04:43:23;;;;;;;7.10;2.67;;;16.90;99.90;;;;;;5039304;28;20466;-85
2021/06/09 04:45:49;;;;;;;2.70;2.40;;;17.00;99.90;;;;;;5031147;28;20481;-86
2021/06/09 04:48:17;;;;;;;4.23;3.20;;;17.10;99.90;;;;;;5021078;28;21151;-84
2021/06/09 04:50:46;;;;;;;2.80;2.20;;;17.10;99.90;;;;;;5024864;28;20450;-84
2021/06/09 04:53:13;;;;;;;2.93;2.50;;;17.20;99.90;;;;;;5035631;28;20435;-82
2021/06/09 04:55:52;;;;;;;1.90;1.80;;;17.20;99.90;;;;;;5032304;28;20458;-84
2021/06/09 04:58:22;;;;;;;5.20;3.60;;;17.30;99.90;;;;;;5021769;28;20426;-83
2021/06/09 05:00:49;;;;;;;3.50;1.67;;;17.40;99.90;;;;;;5033520;28;20446;-83
2021/06/09 05:03:15;;;;;;;3.80;2.13;;;17.50;99.90;;;;;;5039631;28;20406;-83
2021/06/09 05:05:41;;;;;;;6.30;3.50;;;17.60;99.90;;;;;;5022406;28;20420;-83
2021/06/09 05:08:08;;;;;;;3.27;2.97;;;17.50;99.90;;;;;;5020486;28;20175;-84
2021/06/09 05:10:38;;;;;;;5.30;2.90;;;17.60;99.90;;;;;;5036338;28;20446;-83
2021/06/09 05:13:20;;;;;;;4.00;2.80;;;17.70;99.90;;;;;;5036127;28;20431;-84
2021/06/09 05:15:53;;;;;;;11.60;3.73;;;17.80;99.90;;;;;;5030818;28;20979;-83
2021/06/09 05:18:26;;;;;;;6.43;3.53;;;17.90;99.90;;;;;;5007614;28;20434;-82
2021/06/09 05:20:53;;;;;;;3.83;3.33;;;18.00;99.90;;;;;;5015657;28;20442;-82
2021/06/09 05:23:28;;;;;;;4.10;3.00;;;18.10;99.90;;;;;;5017916;28;20832;-82
2021/06/09 05:25:56;;;;;;;6.67;4.27;;;18.20;99.90;;;;;;5016288;28;20422;-83
2021/06/09 05:28:25;;;;;;;3.53;2.73;;;18.30;99.90;;;;;;5032121;28;20434;-83
2021/06/09 05:30:54;;;;;;;5.33;2.40;;;18.50;99.90;;;;;;5013296;28;20470;-83
2021/06/09 05:33:21;;;;;;;2.87;2.60;;;18.60;99.90;;;;;;5010333;28;20438;-82
2021/06/09 05:35:46;;;;;;;3.20;3.00;;;18.80;99.90;;;;;;5032674;28;20453;-82
2021/06/09 05:38:13;;;;;;;3.33;3.03;;;18.90;99.90;;;;;;5031003;28;20430;-80
2021/06/09 05:40:39;;;;;;;5.87;3.80;;;19.00;99.90;;;;;;5032396;28;20254;-82
2021/06/09 05:43:04;;;;;;;3.47;2.90;;;19.10;99.90;;;;;;5017712;28;20406;-82
2021/06/09 05:45:32;;;;;;;4.47;3.10;;;19.20;99.90;;;;;;5035179;28;20210;-82
2021/06/09 05:47:58;;;;;;;5.13;3.17;;;19.30;99.90;;;;;;5035355;28;20175;-82
2021/06/09 05:50:26;;;;;;;4.73;3.10;;;19.50;99.90;;;;;;5032738;28;20444;-82
2021/06/09 05:52:57;;;;;;;8.77;3.40;;;19.50;99.90;;;;;;5027916;28;20416;-82
2021/06/09 05:55:27;;;;;;;7.27;4.43;;;19.60;99.90;;;;;;5013547;28;20434;-83
2021/06/09 05:57:54;;;;;;;2.43;2.23;;;19.70;99.90;;;;;;5026348;28;21258;-83
2021/06/09 06:00:23;;;;;;;4.10;2.77;;;19.90;99.90;;;;;;5000625;28;20439;-83
2021/06/09 06:02:50;;;;;;;4.03;2.60;;;20.00;99.90;;;;;;4998376;28;20436;-83
2021/06/09 06:05:17;;;;;;;6.13;4.00;;;20.20;99.90;;;;;;5028429;28;20957;-82
2021/06/09 06:07:43;;;;;;;6.60;3.70;;;20.50;99.90;;;;;;5014744;28;20426;-83
2021/06/09 06:10:10;;;;;;;3.07;2.70;;;20.70;99.90;;;;;;5029154;28;20451;-84
2021/06/09 06:12:37;;;;;;;5.80;3.33;;;20.80;99.90;;;;;;5024643;28;20505;-82
2021/06/09 06:15:07;;;;;;;4.00;2.70;;;21.00;99.90;;;;;;5016056;28;20445;-83
2021/06/09 06:17:37;;;;;;;4.00;3.50;;;21.30;99.90;;;;;;5032551;28;20827;-83
2021/06/09 06:20:04;;;;;;;3.87;2.60;;;21.50;99.90;;;;;;5037105;28;20555;-83
2021/06/09 06:22:30;;;;;;;4.20;2.90;;;21.60;99.90;;;;;;5017404;28;20462;-82
2021/06/09 06:24:57;;;;;;;4.43;2.87;;;21.60;99.90;;;;;;5018697;28;20433;-83
2021/06/09 06:27:24;;;;;;;6.33;3.37;;;21.70;99.90;;;;;;5031719;28;20440;-82
2021/06/09 06:29:51;;;;;;;5.37;3.73;;;21.90;99.90;;;;;;5033993;28;20463;-83
2021/06/09 06:32:17;;;;;;;4.90;2.60;;;22.10;99.90;;;;;;5030284;28;20437;-82
2021/06/09 06:34:50;;;;;;;5.47;3.97;;;22.40;99.90;;;;;;5033234;28;20446;-82
2021/06/09 06:37:18;;;;;;;3.10;2.80;;;22.70;99.90;;;;;;5015865;28;20454;-82
2021/06/09 06:39:44;;;;;;;3.80;3.30;;;22.90;99.90;;;;;;5005713;28;20483;-82
2021/06/09 06:42:11;;;;;;;8.40;3.33;;;23.20;99.90;;;;;;5030116;28;20431;-81
2021/06/09 06:44:40;;;;;;;4.27;3.03;;;23.40;99.90;;;;;;5028616;28;20446;-82
2021/06/09 06:47:06;;;;;;;5.53;3.20;;;23.50;99.90;;;;;;5023592;28;20438;-82
2021/06/09 06:49:32;;;;;;;3.63;2.97;;;23.80;99.90;;;;;;5032111;28;20462;-81
2021/06/09 06:51:58;;;;;;;4.60;2.80;;;24.00;99.90;;;;;;5014383;28;20576;-81
2021/06/09 06:54:25;;;;;;;3.67;2.57;;;24.30;99.90;;;;;;5032107;28;20457;-80
2021/06/09 06:56:53;;;;;;;3.97;2.87;;;24.40;99.90;;;;;;5039800;28;20266;-82
2021/06/09 06:59:22;;;;;;;4.23;2.33;;;24.70;99.90;;;;;;5023759;28;20458;-80
2021/06/09 07:01:48;;;;;;;13.27;4.20;;;25.00;99.90;;;;;;5007343;28;20427;-81
2021/06/09 07:04:16;;;;;;;4.07;2.73;;;25.20;99.90;;;;;;5023791;28;20478;-82
2021/06/09 07:06:44;;;;;;;5.40;3.30;;;25.40;99.90;;;;;;5011889;28;20706;-80
2021/06/09 07:09:10;;;;;;;4.73;3.17;;;25.50;99.90;;;;;;5047372;28;20452;-81
2021/06/09 07:11:38;;;;;;;4.30;3.53;;;25.70;99.90;;;;;;5039854;28;20444;-81
2021/06/09 07:14:06;;;;;;;4.60;3.20;;;25.80;99.90;;;;;;5021832;28;20435;-81
2021/06/09 07:16:33;;;;;;;3.30;3.10;;;26.00;99.90;;;;;;5026541;28;21013;-83
2021/06/09 07:19:01;;;;;;;4.87;3.20;;;26.20;99.90;;;;;;5032133;28;20470;-80
2021/06/09 07:21:27;;;;;;;2.60;2.00;;;26.40;99.90;;;;;;5034176;28;20422;-82
2021/06/09 07:23:54;;;;;;;4.07;2.47;;;26.60;99.90;;;;;;5004577;28;20461;-81
2021/06/09 07:26:20;;;;;;;9.53;4.73;;;26.90;99.90;;;;;;5008155;28;20175;-81
2021/06/09 07:28:51;;;;;;;3.87;2.63;;;27.10;99.90;;;;;;5000677;28;20442;-82
2021/06/09 07:31:24;;;;;;;3.73;3.17;;;27.20;99.90;;;;;;5035777;28;20426;-81
2021/06/09 07:33:50;;;;;;;4.60;4.13;;;27.20;99.90;;;;;;5012174;28;20438;-82
2021/06/09 07:36:22;;;;;;;5.10;2.40;;;27.30;99.90;;;;;;5015330;28;20454;-81
2021/06/09 07:38:55;;;;;;;3.20;2.70;;;27.50;99.90;;;;;;5029910;28;20548;-80
2021/06/09 07:41:24;;;;;;;8.53;4.37;;;27.80;99.90;;;;;;5010802;28;20442;-81
2021/06/09 07:43:53;;;;;;;5.80;4.20;;;28.00;99.90;;;;;;5026463;28;20430;-81
2021/06/09 07:46:26;;;;;;;4.17;3.30;;;28.10;99.90;;;;;;5046232;28;20518;-81
2021/06/09 07:48:52;;;;;;;4.17;3.20;;;28.40;99.90;;;;;;5042561;28;20434;-82
2021/06/09 07:51:19;;;;;;;3.50;2.97;;;28.50;99.90;;;;;;5026718;28;20426;-82
2021/06/09 07:53:46;;;;;;;3.97;3.43;;;28.70;99.90;;;;;;5042649;28;20465;-80
2021/06/09 07:56:15;;;;;;;5.10;3.70;;;28.90;99.90;;;;;;5018820;28;20530;-80
2021/06/09 07:58:41;;;;;;;2.83;2.43;;;28.80;99.90;;;;;;5019914;28;20430;-80
2021/06/09 08:01:08;;;;;;;5.13;2.70;;;29.10;99.90;;;;;;5032861;28;20441;-80
2021/06/09 08:03:36;;;;;;;3.47;3.10;;;29.50;99.90;;;;;;5023390;28;21004;-79
2021/06/09 08:06:02;;;;;;;3.33;2.70;;;29.70;99.90;;;;;;5027543;28;20423;-80
2021/06/09 08:08:29;;;;;;;2.77;2.33;;;29.70;99.90;;;;;;5015327;28;20510;-80
2021/06/09 08:10:55;;;;;;;3.33;2.43;;;30.00;99.90;;;;;;5010913;28;20455;-80
2021/06/09 08:13:21;;;;;;;2.43;2.23;;;30.10;99.90;;;;;;5040165;28;20445;-81
2021/06/09 08:15:47;;;;;;;2.40;2.20;;;30.30;99.90;;;;;;5021787;28;20206;-80
2021/06/09 08:18:13;;;;;;;3.70;2.63;;;30.40;99.90;;;;;;5015379;28;20462;-81
2021/06/09 08:21:09;;;;;;;2.30;2.10;;;30.70;99.90;;;;;;5038371;28;20190;-81
2021/06/09 08:23:35;;;;;;;4.83;2.20;;;30.60;99.90;;;;;;5035324;28;20434;-80
2021/06/09 08:26:02;;;;;;;4.13;2.93;;;30.70;99.90;;;;;;5034076;28;20526;-81
2021/06/09 08:28:35;;;;;;;4.47;2.63;;;30.40;97.70;;;;;;5027952;28;20534;-80
2021/06/09 08:31:01;;;;;;;2.70;2.27;;;30.40;99.90;;;;;;5021426;28;20457;-80
2021/06/09 08:33:27;;;;;;;2.37;2.03;;;30.30;99.90;;;;;;5035627;28;20438;-80
2021/06/09 08:35:52;;;;;;;6.63;2.70;;;30.30;99.90;;;;;;5025305;28;21096;-80
2021/06/09 08:38:18;;;;;;;1.83;1.73;;;30.10;99.90;;;;;;5033299;28;20527;-80
2021/06/09 08:40:44;;;;;;;5.03;3.07;;;30.00;99.90;;;;;;5031230;28;20298;-76
2021/06/09 08:43:11;;;;;;;2.27;2.07;;;30.00;99.90;;;;;;5015075;28;20978;-76
2021/06/09 08:45:37;;;;;;;5.83;2.97;;;30.10;99.90;;;;;;5033176;28;20484;-80
2021/06/09 08:48:05;;;;;;;3.37;3.07;;;30.40;99.90;;;;;;5017880;28;20414;-80
2021/06/09 08:50:33;;;;;;;3.97;2.90;;;30.70;99.90;;;;;;5033515;28;20295;-80
2021/06/09 08:53:06;;;;;;;3.47;2.23;;;30.70;97.80;;;;;;5033630;28;20426;-80
2021/06/09 08:55:33;;;;;;;2.40;2.20;;;30.80;98.60;;;;;;5001517;28;20431;-78
2021/06/09 08:58:00;;;;;;;3.20;2.33;;;31.10;99.90;;;;;;5012288;28;20431;-80
2021/06/09 09:00:25;;;;;;;2.50;2.30;;;31.50;99.90;;;;;;5015320;28;20446;-80
2021/06/09 09:02:52;;;;;;;3.67;2.80;;;31.90;98.40;;;;;;5008891;28;20438;-79
2021/06/09 09:05:18;;;;;;;3.27;2.97;;;32.20;94.70;;;;;;5025764;28;20203;-79
2021/06/09 09:07:44;;;;;;;3.73;2.87;;;32.50;93.90;;;;;;5013627;28;20415;-79
2021/06/09 09:10:11;;;;;;;3.77;3.40;;;32.70;93.70;;;;;;5030955;28;20192;-79
2021/06/09 09:12:37;;;;;;;3.60;3.20;;;32.90;91.80;;;;;;5035093;28;20168;-79
2021/06/09 09:15:04;;;;;;;2.93;2.60;;;32.90;92.40;;;;;;5033286;28;20433;-79
2021/06/09 09:17:30;;;;;;;2.73;2.53;;;32.60;88.70;;;;;;5015817;28;20223;-79
2021/06/09 09:20:11;;;;;;;2.93;2.47;;;31.90;89.50;;;;;;5023894;28;20517;-78
2021/06/09 09:22:37;;;;;;;2.80;2.23;;;31.50;91.90;;;;;;5023741;28;20465;-79
2021/06/09 09:25:15;;;;;;;3.77;3.20;;;31.40;92.80;;;;;;5006162;28;20434;-80
2021/06/09 09:27:54;;;;;;;3.97;3.57;;;31.60;91.90;;;;;;5010147;28;20444;-79
2021/06/09 09:30:21;;;;;;;3.77;2.20;;;31.70;90.90;;;;;;5011895;28;20458;-80
2021/06/09 09:32:56;;;;;;;3.97;2.30;;;31.90;91.90;;;;;;5026095;28;20438;-79
2021/06/09 09:35:32;;;;;;;4.40;2.57;;;32.40;93.60;;;;;;5004844;28;20422;-78
2021/06/09 09:38:17;;;;;;;3.40;3.10;;;32.60;90.00;;;;;;5032571;28;20437;-80
2021/06/09 09:41:14;;;;;;;2.53;2.33;;;32.40;87.40;;;;;;5033110;28;20533;-79
2021/06/09 09:44:01;;;;;;;2.40;2.20;;;31.80;81.60;;;;;;5013023;28;20473;-79
2021/06/09 09:46:36;;;;;;;2.97;2.30;;;31.50;83.60;;;;;;5012039;28;20391;-78
2021/06/09 09:49:07;;;;;;;6.23;3.17;;;31.40;86.80;;;;;;5012179;28;20430;-79
2021/06/09 09:51:56;;;;;;;3.27;2.73;;;31.50;84.70;;;;;;5030769;28;20434;-81
2021/06/09 09:54:28;;;;;;;4.30;3.00;;;31.60;90.00;;;;;;5033600;28;20436;-80
2021/06/09 09:56:55;;;;;;;6.30;3.23;;;31.90;88.30;;;;;;5015114;28;20501;-79
2021/06/09 09:59:26;;;;;;;3.40;2.33;;;32.30;83.80;;;;;;5036000;28;20958;-80
2021/06/09 10:01:54;;;;;;;8.00;3.90;;;31.90;84.10;;;;;;5017230;28;20488;-81
2021/06/09 10:04:23;;;;;;;3.30;3.00;;;32.30;89.10;;;;;;5035593;28;20407;-79
2021/06/09 10:06:51;;;;;;;2.57;2.13;;;32.50;88.50;;;;;;5025917;28;20485;-80
2021/06/09 10:09:21;;;;;;;2.37;2.13;;;32.70;85.50;;;;;;5023741;28;20862;-80
2021/06/09 10:11:49;;;;;;;5.30;3.20;;;33.00;81.60;;;;;;5034923;28;20444;-81
2021/06/09 10:14:26;;;;;;;2.87;2.50;;;33.10;79.30;;;;;;5018228;28;20997;-81
2021/06/09 10:17:00;;;;;;;2.80;2.60;;;33.20;82.50;;;;;;5014691;28;20564;-79
2021/06/09 10:19:35;;;;;;;4.00;3.47;;;33.40;78.40;;;;;;5028911;28;20457;-78
2021/06/09 10:22:28;;;;;;;2.40;2.00;;;33.60;79.50;;;;;;5033482;28;20429;-79
2021/06/09 10:24:57;;;;;;;3.03;2.13;;;33.40;74.30;;;;;;5033636;28;20441;-80
2021/06/09 10:27:51;;;;;;;2.20;2.00;;;33.00;69.30;;;;;;5016119;28;20441;-79
2021/06/09 10:30:20;;;;;;;2.67;2.40;;;33.10;72.70;;;;;;5034171;28;20422;-79
2021/06/09 10:32:48;;;;;;;2.10;1.80;;;33.40;74.30;;;;;;5020259;28;20414;-79
2021/06/09 10:35:16;;;;;;;2.13;2.03;;;33.90;73.60;;;;;;5037066;28;20426;-80
2021/06/09 10:37:43;;;;;;;2.40;2.20;;;33.90;65.70;;;;;;5035393;28;20476;-80
2021/06/09 10:40:09;;;;;;;2.77;2.30;;;34.00;69.10;;;;;;5001377;28;20486;-81
2021/06/09 10:42:35;;;;;;;2.40;2.20;;;34.30;72.50;;;;;;5018383;28;20892;-79
2021/06/09 10:45:01;;;;;;;3.73;2.30;;;34.40;72.00;;;;;;5017733;28;20429;-79
2021/06/09 10:47:30;;;;;;;3.87;3.17;;;34.60;73.60;;;;;;5018647;28;20255;-79
2021/06/09 10:49:56;;;;;;;3.53;2.70;;;34.60;70.00;;;;;;5021841;28;20464;-79
2021/06/09 10:52:23;;;;;;;1.80;1.70;;;34.10;66.40;;;;;;5013386;28;20520;-79
2021/06/09 10:54:49;;;;;;;2.27;2.07;;;34.00;65.30;;;;;;5034520;28;20691;-78
2021/06/09 10:57:16;;;;;;;1.80;1.70;;;33.70;63.20;;;;;;5033896;28;20829;-79
2021/06/09 10:59:43;;;;;;;2.23;2.03;;;33.50;66.50;;;;;;5020442;28;20513;-79
2021/06/09 11:02:12;;;;;;;2.73;2.37;;;33.70;67.00;;;;;;5027495;28;20513;-78
2021/06/09 11:04:44;;;;;;;4.70;2.70;;;33.80;69.90;;;;;;5025017;28;20460;-80
2021/06/09 11:07:37;;;;;;;2.33;2.17;;;34.20;70.40;;;;;;5018262;28;20437;-80
2021/06/09 11:10:39;;;;;;;3.07;2.77;;;34.40;69.90;;;;;;5029559;28;21070;-79
2021/06/09 11:13:06;;;;;;;2.93;2.67;;;34.30;68.30;;;;;;5035499;28;20502;-80
2021/06/09 11:15:34;;;;;;;3.60;2.73;;;34.40;67.80;;;;;;5034790;28;20441;-81
2021/06/09 11:18:23;;;;;;;3.67;3.17;;;34.50;70.40;;;;;;5039358;28;20435;-80
2021/06/09 11:20:50;;;;;;;2.07;1.90;;;34.60;70.20;;;;;;5019161;28;20469;-79
2021/06/09 11:23:29;;;;;;;2.20;2.00;;;34.60;69.30;;;;;;5016917;28;21223;-79
2021/06/09 11:25:55;;;;;;;2.80;2.37;;;34.80;67.30;;;;;;5019910;28;20405;-80
2021/06/09 11:28:26;;;;;;;2.60;2.23;;;34.80;61.90;;;;;;5018300;28;20780;-81
2021/06/09 11:31:04;;;;;;;3.37;3.07;;;35.00;65.10;;;;;;5017749;28;20885;-80
2021/06/09 11:33:48;;;;;;;2.97;2.67;;;34.90;61.90;;;;;;5017802;28;20784;-79
2021/06/09 11:36:20;;;;;;;4.60;2.50;;;34.90;62.60;;;;;;5020341;28;20457;-80
2021/06/09 11:38:57;;;;;;;2.80;2.60;;;34.90;66.40;;;;;;5035871;28;20415;-79
2021/06/09 11:41:35;;;;;;;2.77;2.57;;;34.50;63.50;;;;;;5017451;28;20453;-79
2021/06/09 11:44:00;;;;;;;2.13;1.90;;;34.40;62.20;;;;;;5021092;28;20402;-79
2021/06/09 11:46:27;;;;;;;2.33;2.13;;;34.10;63.40;;;;;;5033004;28;20449;-80
2021/06/09 11:48:54;;;;;;;4.67;2.90;;;33.90;62.90;;;;;;5029399;28;20548;-79
2021/06/09 11:51:28;;;;;;;2.83;2.27;;;33.90;63.30;;;;;;5001950;28;20435;-77
2021/06/09 11:53:58;;;;;;;2.33;2.00;;;34.00;61.60;;;;;;5031819;28;20415;-79
2021/06/09 11:56:43;;;;;;;2.97;2.67;;;34.20;67.80;;;;;;5016751;28;20869;-80
2021/06/09 11:59:27;;;;;;;2.83;2.43;;;34.40;61.40;;;;;;5024233;28;20430;-80
2021/06/09 12:01:55;;;;;;;2.60;2.33;;;34.60;62.70;;;;;;5036818;28;20402;-81
2021/06/09 12:04:27;;;;;;;2.93;2.73;;;34.70;60.80;;;;;;5028647;28;20926;-80
2021/06/09 12:07:03;;;;;;;3.73;2.70;;;34.80;64.90;;;;;;5014323;28;20513;-80
2021/06/09 12:09:37;;;;;;;3.00;2.80;;;35.10;61.30;;;;;;5037125;28;20442;-79
2021/06/09 12:12:25;;;;;;;2.40;2.20;;;35.20;59.50;;;;;;5017819;28;20426;-80
2021/06/09 12:14:52;;;;;;;2.40;1.93;;;35.40;62.20;;;;;;5035657;28;20417;-79
2021/06/09 12:17:40;;;;;;;3.03;2.73;;;35.40;62.80;;;;;;5034719;28;20458;-80
2021/06/09 12:20:18;;;;;;;2.20;2.00;;;35.80;63.30;;;;;;5014360;28;20454;-79
2021/06/09 12:22:51;;;;;;;3.30;2.87;;;36.00;64.30;;;;;;5035744;28;20426;-79
2021/06/09 12:25:23;;;;;;;4.10;3.37;;;36.00;59.80;;;;;;5035231;28;20458;-80
2021/06/09 12:28:10;;;;;;;2.80;2.60;;;36.20;62.10;;;;;;5017467;28;20455;-80
2021/06/09 12:30:40;;;;;;;4.87;2.80;;;36.20;59.80;;;;;;5031177;28;20442;-79
2021/06/09 12:33:06;;;;;;;3.27;3.00;;;36.00;59.50;;;;;;5016014;28;20410;-80
2021/06/09 12:35:31;;;;;;;4.23;3.93;;;35.90;58.90;;;;;;5035427;28;20517;-80
2021/06/09 12:38:00;;;;;;;5.03;3.03;;;35.80;59.70;;;;;;5035674;28;20167;-76
2021/06/09 12:40:27;;;;;;;4.10;2.83;;;35.40;59.00;;;;;;5018350;28;20447;-79
2021/06/09 12:43:12;;;;;;;4.97;3.07;;;35.00;61.80;;;;;;5016326;28;20422;-79
2021/06/09 12:45:40;;;;;;;2.83;2.53;;;34.70;59.90;;;;;;5000167;28;20427;-80
2021/06/09 12:48:18;;;;;;;2.80;2.40;;;34.40;61.40;;;;;;5010324;28;20537;-78
2021/06/09 12:50:52;;;;;;;3.30;3.00;;;34.30;65.90;;;;;;5031873;28;20835;-80
2021/06/09 12:53:23;;;;;;;2.23;2.03;;;34.20;63.10;;;;;;5032063;28;20424;-79
2021/06/09 12:55:50;;;;;;;5.80;3.00;;;34.40;61.10;;;;;;5014994;28;20462;-78
2021/06/09 12:58:21;;;;;;;2.47;2.13;;;34.60;61.30;;;;;;5033230;28;20493;-79
2021/06/09 13:00:51;;;;;;;2.93;2.73;;;34.40;60.50;;;;;;5035788;28;20454;-80
2021/06/09 13:03:25;;;;;;;2.40;2.20;;;34.30;61.40;;;;;;5018433;28;20446;-81